sensor_id;sensor_type;location;lat;lon;timestamp;P1;durP1;ratioP1;P2;durP2;ratioP2
20067;SDS011;10194;50.824;7.134;2023-10-19T00:01:14;61.97;;;50.37;;
20067;SDS011;10194;50.824;7.134;2023-10-19T00:03:43;59.40;;;49.23;;
20067;SDS011;10194;50.824;7.134;2023-10-19T00:06:09;60.63;;;49.93;;
20067;SDS011;10194;50.824;7.134;2023-10-19T00:08:36;61.63;;;50.30;;
20067;SDS011;10194;50.824;7.134;2023-10-19T00:11:09;60.53;;;49.83;;
20067;SDS011;10194;50.824;7.134;2023-10-19T00:13:46;60.73;;;49.93;;
20067;SDS011;10194;50.824;7.134;2023-10-19T00:16:18;60.73;;;49.97;;
20067;SDS011;10194;50.824;7.134;2023-10-19T00:18:47;60.93;;;50.03;;
20067;SDS011;10194;50.824;7.134;2023-10-19T00:21:14;60.33;;;50.03;;
20067;SDS011;10194;50.824;7.134;2023-10-19T00:23:50;59.83;;;49.33;;
20067;SDS011;10194;50.824;7.134;2023-10-19T00:26:26;65.07;;;52.30;;
20067;SDS011;10194;50.824;7.134;2023-10-19T00:28:54;60.57;;;49.83;;
20067;SDS011;10194;50.824;7.134;2023-10-19T00:31:26;61.13;;;50.17;;
20067;SDS011;10194;50.824;7.134;2023-10-19T00:33:53;60.43;;;49.83;;
20067;SDS011;10194;50.824;7.134;2023-10-19T00:36:19;61.57;;;50.47;;
20067;SDS011;10194;50.824;7.134;2023-10-19T00:38:46;61.57;;;50.53;;
20067;SDS011;10194;50.824;7.134;2023-10-19T00:41:16;61.37;;;50.37;;
20067;SDS011;10194;50.824;7.134;2023-10-19T00:43:52;61.60;;;50.40;;
20067;SDS011;10194;50.824;7.134;2023-10-19T00:46:23;64.73;;;52.33;;
20067;SDS011;10194;50.824;7.134;2023-10-19T00:48:57;60.83;;;50.20;;
20067;SDS011;10194;50.824;7.134;2023-10-19T00:51:28;61.53;;;50.43;;
20067;SDS011;10194;50.824;7.134;2023-10-19T00:54:04;61.63;;;50.40;;
20067;SDS011;10194;50.824;7.134;2023-10-19T00:56:56;62.40;;;50.87;;
20067;SDS011;10194;50.824;7.134;2023-10-19T00:59:28;61.20;;;50.40;;
20067;SDS011;10194;50.824;7.134;2023-10-19T01:02:00;60.43;;;49.80;;
20067;SDS011;10194;50.824;7.134;2023-10-19T01:04:46;60.70;;;50.10;;
20067;SDS011;10194;50.824;7.134;2023-10-19T01:07:31;60.03;;;49.80;;
20067;SDS011;10194;50.824;7.134;2023-10-19T01:10:04;60.43;;;49.93;;
20067;SDS011;10194;50.824;7.134;2023-10-19T01:12:37;61.73;;;50.67;;
20067;SDS011;10194;50.824;7.134;2023-10-19T01:17:49;61.23;;;50.40;;
20067;SDS011;10194;50.824;7.134;2023-10-19T01:20:26;61.30;;;50.47;;
20067;SDS011;10194;50.824;7.134;2023-10-19T01:25:43;61.50;;;50.73;;
20067;SDS011;10194;50.824;7.134;2023-10-19T01:28:19;61.80;;;50.53;;
20067;SDS011;10194;50.824;7.134;2023-10-19T01:30:50;61.47;;;50.60;;
20067;SDS011;10194;50.824;7.134;2023-10-19T01:33:17;61.80;;;50.87;;
20067;SDS011;10194;50.824;7.134;2023-10-19T01:35:43;61.47;;;50.57;;
20067;SDS011;10194;50.824;7.134;2023-10-19T01:38:28;61.17;;;50.57;;
20067;SDS011;10194;50.824;7.134;2023-10-19T01:40:58;61.90;;;50.73;;
20067;SDS011;10194;50.824;7.134;2023-10-19T01:43:28;62.47;;;51.17;;
20067;SDS011;10194;50.824;7.134;2023-10-19T01:45:57;61.97;;;50.77;;
20067;SDS011;10194;50.824;7.134;2023-10-19T01:48:29;62.00;;;50.83;;
20067;SDS011;10194;50.824;7.134;2023-10-19T01:51:02;60.63;;;50.33;;
20067;SDS011;10194;50.824;7.134;2023-10-19T01:53:30;62.30;;;51.17;;
20067;SDS011;10194;50.824;7.134;2023-10-19T01:56:04;61.37;;;50.43;;
20067;SDS011;10194;50.824;7.134;2023-10-19T01:58:34;61.07;;;50.53;;
20067;SDS011;10194;50.824;7.134;2023-10-19T02:01:02;62.57;;;51.30;;
20067;SDS011;10194;50.824;7.134;2023-10-19T02:03:33;61.60;;;50.77;;
20067;SDS011;10194;50.824;7.134;2023-10-19T02:06:03;62.70;;;51.23;;
20067;SDS011;10194;50.824;7.134;2023-10-19T02:08:49;61.30;;;50.57;;
20067;SDS011;10194;50.824;7.134;2023-10-19T02:11:20;61.47;;;50.63;;
20067;SDS011;10194;50.824;7.134;2023-10-19T02:13:51;60.60;;;50.27;;
20067;SDS011;10194;50.824;7.134;2023-10-19T02:16:19;61.17;;;50.33;;
20067;SDS011;10194;50.824;7.134;2023-10-19T02:18:49;63.10;;;51.70;;
20067;SDS011;10194;50.824;7.134;2023-10-19T02:21:15;61.80;;;51.03;;
20067;SDS011;10194;50.824;7.134;2023-10-19T02:23:48;60.77;;;50.27;;
20067;SDS011;10194;50.824;7.134;2023-10-19T02:26:17;62.63;;;51.40;;
20067;SDS011;10194;50.824;7.134;2023-10-19T02:28:48;61.43;;;50.73;;
20067;SDS011;10194;50.824;7.134;2023-10-19T02:31:17;62.00;;;51.10;;
20067;SDS011;10194;50.824;7.134;2023-10-19T02:33:47;61.30;;;50.60;;
20067;SDS011;10194;50.824;7.134;2023-10-19T02:36:20;62.20;;;50.87;;
20067;SDS011;10194;50.824;7.134;2023-10-19T02:38:47;62.57;;;51.30;;
20067;SDS011;10194;50.824;7.134;2023-10-19T02:41:17;62.43;;;51.37;;
20067;SDS011;10194;50.824;7.134;2023-10-19T02:43:46;62.00;;;51.03;;
20067;SDS011;10194;50.824;7.134;2023-10-19T02:46:16;61.40;;;50.70;;
20067;SDS011;10194;50.824;7.134;2023-10-19T02:48:43;62.87;;;51.37;;
20067;SDS011;10194;50.824;7.134;2023-10-19T02:51:12;61.90;;;50.97;;
20067;SDS011;10194;50.824;7.134;2023-10-19T02:53:41;62.50;;;51.27;;
20067;SDS011;10194;50.824;7.134;2023-10-19T02:56:11;61.87;;;50.93;;
20067;SDS011;10194;50.824;7.134;2023-10-19T02:58:49;62.70;;;51.37;;
20067;SDS011;10194;50.824;7.134;2023-10-19T03:01:19;61.77;;;50.87;;
20067;SDS011;10194;50.824;7.134;2023-10-19T03:03:54;61.80;;;51.00;;
20067;SDS011;10194;50.824;7.134;2023-10-19T03:06:24;66.57;;;53.40;;
20067;SDS011;10194;50.824;7.134;2023-10-19T03:08:51;63.13;;;51.70;;
20067;SDS011;10194;50.824;7.134;2023-10-19T03:11:23;62.20;;;51.23;;
20067;SDS011;10194;50.824;7.134;2023-10-19T03:13:50;62.50;;;51.40;;
20067;SDS011;10194;50.824;7.134;2023-10-19T03:16:17;62.70;;;51.50;;
20067;SDS011;10194;50.824;7.134;2023-10-19T03:18:44;62.67;;;51.33;;
20067;SDS011;10194;50.824;7.134;2023-10-19T03:21:10;62.37;;;51.27;;
20067;SDS011;10194;50.824;7.134;2023-10-19T03:23:36;62.20;;;51.20;;
20067;SDS011;10194;50.824;7.134;2023-10-19T03:26:03;61.97;;;51.00;;
20067;SDS011;10194;50.824;7.134;2023-10-19T03:28:49;62.37;;;51.23;;
20067;SDS011;10194;50.824;7.134;2023-10-19T03:31:24;61.63;;;50.77;;
20067;SDS011;10194;50.824;7.134;2023-10-19T03:33:53;61.87;;;50.93;;
20067;SDS011;10194;50.824;7.134;2023-10-19T03:36:22;62.17;;;51.07;;
20067;SDS011;10194;50.824;7.134;2023-10-19T03:38:49;61.47;;;50.73;;
20067;SDS011;10194;50.824;7.134;2023-10-19T03:41:17;61.23;;;50.60;;
20067;SDS011;10194;50.824;7.134;2023-10-19T03:43:47;61.83;;;50.93;;
20067;SDS011;10194;50.824;7.134;2023-10-19T03:46:14;62.30;;;51.13;;
20067;SDS011;10194;50.824;7.134;2023-10-19T03:48:47;61.83;;;50.77;;
20067;SDS011;10194;50.824;7.134;2023-10-19T03:51:13;61.70;;;50.70;;
20067;SDS011;10194;50.824;7.134;2023-10-19T03:53:40;62.37;;;51.07;;
20067;SDS011;10194;50.824;7.134;2023-10-19T03:56:19;62.30;;;51.10;;
20067;SDS011;10194;50.824;7.134;2023-10-19T03:58:45;62.40;;;51.23;;
20067;SDS011;10194;50.824;7.134;2023-10-19T04:01:12;62.67;;;51.47;;
20067;SDS011;10194;50.824;7.134;2023-10-19T04:03:41;61.90;;;51.00;;
20067;SDS011;10194;50.824;7.134;2023-10-19T04:06:08;61.67;;;50.97;;
20067;SDS011;10194;50.824;7.134;2023-10-19T04:08:39;61.27;;;50.67;;
20067;SDS011;10194;50.824;7.134;2023-10-19T04:11:08;62.33;;;51.17;;
20067;SDS011;10194;50.824;7.134;2023-10-19T04:13:44;61.70;;;50.80;;
20067;SDS011;10194;50.824;7.134;2023-10-19T04:16:10;61.73;;;50.90;;
20067;SDS011;10194;50.824;7.134;2023-10-19T04:18:36;62.00;;;51.03;;
20067;SDS011;10194;50.824;7.134;2023-10-19T04:21:03;61.00;;;50.63;;
20067;SDS011;10194;50.824;7.134;2023-10-19T04:23:29;61.70;;;50.87;;
20067;SDS011;10194;50.824;7.134;2023-10-19T04:26:00;61.87;;;51.00;;
20067;SDS011;10194;50.824;7.134;2023-10-19T04:28:44;61.70;;;50.70;;
20067;SDS011;10194;50.824;7.134;2023-10-19T04:31:10;61.43;;;50.93;;
20067;SDS011;10194;50.824;7.134;2023-10-19T04:33:39;62.07;;;51.20;;
20067;SDS011;10194;50.824;7.134;2023-10-19T04:36:07;63.20;;;51.73;;
20067;SDS011;10194;50.824;7.134;2023-10-19T04:38:36;61.23;;;50.60;;
20067;SDS011;10194;50.824;7.134;2023-10-19T04:41:06;61.33;;;50.87;;
20067;SDS011;10194;50.824;7.134;2023-10-19T04:43:33;62.00;;;51.20;;
20067;SDS011;10194;50.824;7.134;2023-10-19T04:46:06;61.20;;;50.67;;
20067;SDS011;10194;50.824;7.134;2023-10-19T04:48:40;62.40;;;51.23;;
20067;SDS011;10194;50.824;7.134;2023-10-19T04:51:07;61.40;;;50.87;;
20067;SDS011;10194;50.824;7.134;2023-10-19T04:53:36;61.70;;;51.07;;
20067;SDS011;10194;50.824;7.134;2023-10-19T04:56:03;61.50;;;50.97;;
20067;SDS011;10194;50.824;7.134;2023-10-19T04:58:30;63.23;;;51.70;;
20067;SDS011;10194;50.824;7.134;2023-10-19T05:00:56;62.00;;;51.23;;
20067;SDS011;10194;50.824;7.134;2023-10-19T05:03:24;62.50;;;51.60;;
20067;SDS011;10194;50.824;7.134;2023-10-19T05:05:51;62.43;;;51.43;;
20067;SDS011;10194;50.824;7.134;2023-10-19T05:08:16;61.60;;;51.00;;
20067;SDS011;10194;50.824;7.134;2023-10-19T05:10:42;62.67;;;51.50;;
20067;SDS011;10194;50.824;7.134;2023-10-19T05:13:08;61.87;;;51.17;;
20067;SDS011;10194;50.824;7.134;2023-10-19T05:15:34;63.37;;;51.90;;
20067;SDS011;10194;50.824;7.134;2023-10-19T05:18:00;63.00;;;51.73;;
20067;SDS011;10194;50.824;7.134;2023-10-19T05:20:27;62.07;;;51.20;;
20067;SDS011;10194;50.824;7.134;2023-10-19T05:22:52;62.77;;;51.43;;
20067;SDS011;10194;50.824;7.134;2023-10-19T05:25:18;61.97;;;51.17;;
20067;SDS011;10194;50.824;7.134;2023-10-19T05:27:44;62.53;;;51.53;;
20067;SDS011;10194;50.824;7.134;2023-10-19T05:30:10;61.97;;;51.07;;
20067;SDS011;10194;50.824;7.134;2023-10-19T05:32:37;63.20;;;51.80;;
20067;SDS011;10194;50.824;7.134;2023-10-19T05:35:04;62.60;;;51.40;;
20067;SDS011;10194;50.824;7.134;2023-10-19T05:37:30;64.63;;;52.80;;
20067;SDS011;10194;50.824;7.134;2023-10-19T05:39:56;62.53;;;51.43;;
20067;SDS011;10194;50.824;7.134;2023-10-19T05:42:22;62.97;;;51.63;;
20067;SDS011;10194;50.824;7.134;2023-10-19T05:44:48;62.67;;;51.47;;
20067;SDS011;10194;50.824;7.134;2023-10-19T05:47:14;63.30;;;51.83;;
20067;SDS011;10194;50.824;7.134;2023-10-19T05:49:39;61.97;;;51.27;;
20067;SDS011;10194;50.824;7.134;2023-10-19T05:52:05;62.00;;;51.13;;
20067;SDS011;10194;50.824;7.134;2023-10-19T05:54:31;62.93;;;51.70;;
20067;SDS011;10194;50.824;7.134;2023-10-19T05:56:57;62.47;;;51.60;;
20067;SDS011;10194;50.824;7.134;2023-10-19T05:59:23;62.10;;;51.40;;
20067;SDS011;10194;50.824;7.134;2023-10-19T06:01:51;63.10;;;51.87;;
20067;SDS011;10194;50.824;7.134;2023-10-19T06:04:17;63.27;;;51.87;;
20067;SDS011;10194;50.824;7.134;2023-10-19T06:06:43;62.23;;;51.50;;
20067;SDS011;10194;50.824;7.134;2023-10-19T06:09:09;64.43;;;52.63;;
20067;SDS011;10194;50.824;7.134;2023-10-19T06:11:35;62.37;;;51.47;;
20067;SDS011;10194;50.824;7.134;2023-10-19T06:14:03;62.43;;;51.43;;
20067;SDS011;10194;50.824;7.134;2023-10-19T06:16:33;67.90;;;54.23;;
20067;SDS011;10194;50.824;7.134;2023-10-19T06:18:59;66.80;;;53.63;;
20067;SDS011;10194;50.824;7.134;2023-10-19T06:21:25;63.97;;;52.53;;
20067;SDS011;10194;50.824;7.134;2023-10-19T06:23:51;65.67;;;53.00;;
20067;SDS011;10194;50.824;7.134;2023-10-19T06:26:18;63.67;;;52.33;;
20067;SDS011;10194;50.824;7.134;2023-10-19T06:28:44;63.93;;;52.23;;
20067;SDS011;10194;50.824;7.134;2023-10-19T06:31:11;63.13;;;52.10;;
20067;SDS011;10194;50.824;7.134;2023-10-19T06:33:39;63.20;;;52.03;;
20067;SDS011;10194;50.824;7.134;2023-10-19T06:36:06;65.53;;;52.83;;
20067;SDS011;10194;50.824;7.134;2023-10-19T06:38:32;63.93;;;52.53;;
20067;SDS011;10194;50.824;7.134;2023-10-19T06:41:05;64.00;;;52.70;;
20067;SDS011;10194;50.824;7.134;2023-10-19T06:43:36;62.97;;;52.07;;
20067;SDS011;10194;50.824;7.134;2023-10-19T06:46:05;65.97;;;53.47;;
20067;SDS011;10194;50.824;7.134;2023-10-19T06:48:31;65.83;;;53.07;;
20067;SDS011;10194;50.824;7.134;2023-10-19T06:50:57;64.93;;;52.87;;
20067;SDS011;10194;50.824;7.134;2023-10-19T06:53:25;63.83;;;52.53;;
20067;SDS011;10194;50.824;7.134;2023-10-19T06:55:51;66.77;;;53.70;;
20067;SDS011;10194;50.824;7.134;2023-10-19T06:58:17;65.07;;;53.27;;
20067;SDS011;10194;50.824;7.134;2023-10-19T07:00:45;70.30;;;54.97;;
20067;SDS011;10194;50.824;7.134;2023-10-19T07:03:20;63.87;;;52.57;;
20067;SDS011;10194;50.824;7.134;2023-10-19T07:05:47;66.17;;;53.47;;
20067;SDS011;10194;50.824;7.134;2023-10-19T07:08:14;63.40;;;52.40;;
20067;SDS011;10194;50.824;7.134;2023-10-19T07:10:40;64.60;;;53.03;;
20067;SDS011;10194;50.824;7.134;2023-10-19T07:13:08;65.57;;;53.40;;
20067;SDS011;10194;50.824;7.134;2023-10-19T07:15:33;65.30;;;53.30;;
20067;SDS011;10194;50.824;7.134;2023-10-19T07:17:59;66.10;;;53.60;;
20067;SDS011;10194;50.824;7.134;2023-10-19T07:20:25;64.77;;;53.10;;
20067;SDS011;10194;50.824;7.134;2023-10-19T07:22:59;68.57;;;55.07;;
20067;SDS011;10194;50.824;7.134;2023-10-19T07:25:47;65.17;;;53.40;;
20067;SDS011;10194;50.824;7.134;2023-10-19T07:28:17;63.77;;;52.57;;
20067;SDS011;10194;50.824;7.134;2023-10-19T07:30:44;62.80;;;52.30;;
20067;SDS011;10194;50.824;7.134;2023-10-19T07:33:11;63.20;;;52.67;;
20067;SDS011;10194;50.824;7.134;2023-10-19T07:35:45;63.60;;;52.90;;
20067;SDS011;10194;50.824;7.134;2023-10-19T07:38:13;65.90;;;53.67;;
20067;SDS011;10194;50.824;7.134;2023-10-19T07:40:40;62.63;;;52.33;;
20067;SDS011;10194;50.824;7.134;2023-10-19T07:43:06;63.73;;;52.97;;
20067;SDS011;10194;50.824;7.134;2023-10-19T07:45:33;64.47;;;53.10;;
20067;SDS011;10194;50.824;7.134;2023-10-19T07:47:59;67.53;;;54.50;;
20067;SDS011;10194;50.824;7.134;2023-10-19T07:50:34;63.70;;;52.93;;
20067;SDS011;10194;50.824;7.134;2023-10-19T07:53:01;68.07;;;55.40;;
20067;SDS011;10194;50.824;7.134;2023-10-19T07:55:28;64.60;;;53.47;;
20067;SDS011;10194;50.824;7.134;2023-10-19T07:57:56;68.60;;;55.03;;
20067;SDS011;10194;50.824;7.134;2023-10-19T08:00:25;65.10;;;53.80;;
20067;SDS011;10194;50.824;7.134;2023-10-19T08:02:51;65.17;;;53.77;;
20067;SDS011;10194;50.824;7.134;2023-10-19T08:05:19;69.33;;;55.30;;
20067;SDS011;10194;50.824;7.134;2023-10-19T08:07:46;64.07;;;53.47;;
20067;SDS011;10194;50.824;7.134;2023-10-19T08:10:12;66.60;;;54.23;;
20067;SDS011;10194;50.824;7.134;2023-10-19T08:12:41;70.80;;;56.00;;
20067;SDS011;10194;50.824;7.134;2023-10-19T08:15:11;68.63;;;55.27;;
20067;SDS011;10194;50.824;7.134;2023-10-19T08:17:38;69.00;;;55.50;;
20067;SDS011;10194;50.824;7.134;2023-10-19T08:20:06;68.23;;;55.20;;
20067;SDS011;10194;50.824;7.134;2023-10-19T08:22:41;71.00;;;56.40;;
20067;SDS011;10194;50.824;7.134;2023-10-19T08:25:13;67.27;;;54.93;;
20067;SDS011;10194;50.824;7.134;2023-10-19T08:27:42;68.47;;;55.30;;
20067;SDS011;10194;50.824;7.134;2023-10-19T08:30:13;69.23;;;55.80;;
20067;SDS011;10194;50.824;7.134;2023-10-19T08:32:40;64.73;;;53.90;;
20067;SDS011;10194;50.824;7.134;2023-10-19T08:35:07;66.77;;;54.97;;
20067;SDS011;10194;50.824;7.134;2023-10-19T08:37:37;69.90;;;56.27;;
20067;SDS011;10194;50.824;7.134;2023-10-19T08:40:05;70.43;;;56.83;;
20067;SDS011;10194;50.824;7.134;2023-10-19T08:42:32;67.13;;;55.30;;
20067;SDS011;10194;50.824;7.134;2023-10-19T08:44:59;70.60;;;56.70;;
20067;SDS011;10194;50.824;7.134;2023-10-19T08:47:25;64.50;;;54.07;;
20067;SDS011;10194;50.824;7.134;2023-10-19T08:49:52;66.57;;;54.77;;
20067;SDS011;10194;50.824;7.134;2023-10-19T08:52:20;70.27;;;56.43;;
20067;SDS011;10194;50.824;7.134;2023-10-19T08:54:49;68.27;;;55.93;;
20067;SDS011;10194;50.824;7.134;2023-10-19T08:57:15;68.53;;;55.73;;
20067;SDS011;10194;50.824;7.134;2023-10-19T08:59:41;70.53;;;56.33;;
20067;SDS011;10194;50.824;7.134;2023-10-19T09:02:06;65.00;;;54.07;;
20067;SDS011;10194;50.824;7.134;2023-10-19T09:04:32;69.60;;;56.27;;
20067;SDS011;10194;50.824;7.134;2023-10-19T09:07:08;67.60;;;55.13;;
20067;SDS011;10194;50.824;7.134;2023-10-19T09:09:36;69.67;;;56.13;;
20067;SDS011;10194;50.824;7.134;2023-10-19T09:12:08;65.47;;;54.23;;
20067;SDS011;10194;50.824;7.134;2023-10-19T09:14:35;68.57;;;55.67;;
20067;SDS011;10194;50.824;7.134;2023-10-19T09:17:06;65.00;;;53.97;;
20067;SDS011;10194;50.824;7.134;2023-10-19T09:22:09;66.90;;;54.73;;
20067;SDS011;10194;50.824;7.134;2023-10-19T09:24:43;65.10;;;53.93;;
20067;SDS011;10194;50.824;7.134;2023-10-19T09:27:18;70.40;;;56.47;;
20067;SDS011;10194;50.824;7.134;2023-10-19T09:29:45;71.90;;;56.97;;
20067;SDS011;10194;50.824;7.134;2023-10-19T09:32:13;71.30;;;56.90;;
20067;SDS011;10194;50.824;7.134;2023-10-19T09:34:41;71.00;;;57.13;;
20067;SDS011;10194;50.824;7.134;2023-10-19T09:37:11;67.00;;;55.17;;
20067;SDS011;10194;50.824;7.134;2023-10-19T09:39:38;70.57;;;57.07;;
20067;SDS011;10194;50.824;7.134;2023-10-19T09:42:08;66.63;;;55.13;;
20067;SDS011;10194;50.824;7.134;2023-10-19T09:44:42;72.17;;;57.97;;
20067;SDS011;10194;50.824;7.134;2023-10-19T09:47:10;70.37;;;57.27;;
20067;SDS011;10194;50.824;7.134;2023-10-19T09:49:54;69.17;;;56.37;;
20067;SDS011;10194;50.824;7.134;2023-10-19T09:52:20;72.10;;;58.10;;
20067;SDS011;10194;50.824;7.134;2023-10-19T09:57:51;71.77;;;57.93;;
20067;SDS011;10194;50.824;7.134;2023-10-19T10:00:23;69.43;;;56.50;;
20067;SDS011;10194;50.824;7.134;2023-10-19T10:02:50;67.43;;;55.97;;
20067;SDS011;10194;50.824;7.134;2023-10-19T10:10:44;66.20;;;55.27;;
20067;SDS011;10194;50.824;7.134;2023-10-19T10:13:36;70.00;;;57.30;;
20067;SDS011;10194;50.824;7.134;2023-10-19T10:16:01;74.13;;;59.93;;
20067;SDS011;10194;50.824;7.134;2023-10-19T10:18:31;79.33;;;63.20;;
20067;SDS011;10194;50.824;7.134;2023-10-19T10:21:12;77.67;;;61.53;;
20067;SDS011;10194;50.824;7.134;2023-10-19T10:26:18;72.73;;;59.43;;
20067;SDS011;10194;50.824;7.134;2023-10-19T10:29:07;68.87;;;57.03;;
20067;SDS011;10194;50.824;7.134;2023-10-19T10:31:47;67.60;;;56.73;;
20067;SDS011;10194;50.824;7.134;2023-10-19T10:37:02;74.53;;;60.97;;
20067;SDS011;10194;50.824;7.134;2023-10-19T10:39:36;73.90;;;59.90;;
20067;SDS011;10194;50.824;7.134;2023-10-19T10:42:05;74.00;;;60.33;;
20067;SDS011;10194;50.824;7.134;2023-10-19T10:47:12;68.30;;;57.00;;
20067;SDS011;10194;50.824;7.134;2023-10-19T10:49:59;72.67;;;59.63;;
20067;SDS011;10194;50.824;7.134;2023-10-19T10:52:36;69.73;;;57.83;;
20067;SDS011;10194;50.824;7.134;2023-10-19T10:55:09;73.77;;;60.13;;
20067;SDS011;10194;50.824;7.134;2023-10-19T10:57:37;74.10;;;60.33;;
20067;SDS011;10194;50.824;7.134;2023-10-19T11:00:05;68.03;;;57.07;;
20067;SDS011;10194;50.824;7.134;2023-10-19T11:02:40;73.33;;;60.30;;
20067;SDS011;10194;50.824;7.134;2023-10-19T11:05:17;73.67;;;60.13;;
20067;SDS011;10194;50.824;7.134;2023-10-19T11:10:46;72.40;;;60.00;;
20067;SDS011;10194;50.824;7.134;2023-10-19T11:13:16;71.73;;;59.53;;
20067;SDS011;10194;50.824;7.134;2023-10-19T11:15:51;71.63;;;59.23;;
20067;SDS011;10194;50.824;7.134;2023-10-19T11:18:32;72.80;;;59.90;;
20067;SDS011;10194;50.824;7.134;2023-10-19T11:21:07;69.23;;;57.93;;
20067;SDS011;10194;50.824;7.134;2023-10-19T11:23:43;75.00;;;61.17;;
20067;SDS011;10194;50.824;7.134;2023-10-19T11:26:12;74.47;;;61.17;;
20067;SDS011;10194;50.824;7.134;2023-10-19T11:28:40;73.40;;;60.50;;
20067;SDS011;10194;50.824;7.134;2023-10-19T11:31:21;70.60;;;58.77;;
20067;SDS011;10194;50.824;7.134;2023-10-19T11:33:49;68.97;;;57.93;;
20067;SDS011;10194;50.824;7.134;2023-10-19T11:36:18;71.93;;;59.73;;
20067;SDS011;10194;50.824;7.134;2023-10-19T11:38:45;72.87;;;60.03;;
20067;SDS011;10194;50.824;7.134;2023-10-19T11:41:13;71.50;;;59.60;;
20067;SDS011;10194;50.824;7.134;2023-10-19T11:43:41;74.60;;;61.30;;
20067;SDS011;10194;50.824;7.134;2023-10-19T11:46:10;72.00;;;59.03;;
20067;SDS011;10194;50.824;7.134;2023-10-19T11:48:37;73.10;;;60.50;;
20067;SDS011;10194;50.824;7.134;2023-10-19T11:51:05;72.07;;;60.13;;
20067;SDS011;10194;50.824;7.134;2023-10-19T11:53:31;74.37;;;60.67;;
20067;SDS011;10194;50.824;7.134;2023-10-19T11:56:11;74.13;;;60.07;;
20067;SDS011;10194;50.824;7.134;2023-10-19T11:58:39;72.30;;;60.30;;
20067;SDS011;10194;50.824;7.134;2023-10-19T12:01:07;72.77;;;60.37;;
20067;SDS011;10194;50.824;7.134;2023-10-19T12:03:38;66.63;;;56.50;;
20067;SDS011;10194;50.824;7.134;2023-10-19T12:06:11;70.10;;;58.43;;
20067;SDS011;10194;50.824;7.134;2023-10-19T12:08:43;89.20;;;69.27;;
20067;SDS011;10194;50.824;7.134;2023-10-19T12:11:10;76.03;;;61.57;;
20067;SDS011;10194;50.824;7.134;2023-10-19T12:13:44;75.17;;;61.20;;
20067;SDS011;10194;50.824;7.134;2023-10-19T12:16:12;69.47;;;58.17;;
20067;SDS011;10194;50.824;7.134;2023-10-19T12:18:40;74.53;;;61.27;;
20067;SDS011;10194;50.824;7.134;2023-10-19T12:21:10;72.90;;;60.10;;
20067;SDS011;10194;50.824;7.134;2023-10-19T12:23:39;72.37;;;60.27;;
20067;SDS011;10194;50.824;7.134;2023-10-19T12:26:08;67.97;;;56.97;;
20067;SDS011;10194;50.824;7.134;2023-10-19T12:28:38;72.80;;;60.17;;
20067;SDS011;10194;50.824;7.134;2023-10-19T12:31:06;68.40;;;57.47;;
20067;SDS011;10194;50.824;7.134;2023-10-19T12:33:38;67.90;;;57.17;;
20067;SDS011;10194;50.824;7.134;2023-10-19T12:36:07;73.37;;;60.30;;
20067;SDS011;10194;50.824;7.134;2023-10-19T12:38:53;105.13;;;76.27;;
20067;SDS011;10194;50.824;7.134;2023-10-19T12:41:22;73.67;;;60.43;;
20067;SDS011;10194;50.824;7.134;2023-10-19T12:43:50;72.07;;;59.90;;
20067;SDS011;10194;50.824;7.134;2023-10-19T12:46:52;67.67;;;56.97;;
20067;SDS011;10194;50.824;7.134;2023-10-19T12:49:19;67.93;;;57.13;;
20067;SDS011;10194;50.824;7.134;2023-10-19T12:51:51;68.50;;;57.50;;
20067;SDS011;10194;50.824;7.134;2023-10-19T12:54:19;71.67;;;59.17;;
20067;SDS011;10194;50.824;7.134;2023-10-19T12:56:47;67.47;;;56.87;;
20067;SDS011;10194;50.824;7.134;2023-10-19T12:59:15;75.23;;;61.07;;
20067;SDS011;10194;50.824;7.134;2023-10-19T13:01:44;74.47;;;61.00;;
20067;SDS011;10194;50.824;7.134;2023-10-19T13:04:15;69.10;;;57.47;;
20067;SDS011;10194;50.824;7.134;2023-10-19T13:06:45;68.40;;;56.97;;
20067;SDS011;10194;50.824;7.134;2023-10-19T13:09:12;73.60;;;60.17;;
20067;SDS011;10194;50.824;7.134;2023-10-19T13:11:41;69.20;;;57.57;;
20067;SDS011;10194;50.824;7.134;2023-10-19T13:14:09;71.17;;;58.43;;
20067;SDS011;10194;50.824;7.134;2023-10-19T13:16:37;76.23;;;61.43;;
20067;SDS011;10194;50.824;7.134;2023-10-19T13:19:03;72.87;;;59.87;;
20067;SDS011;10194;50.824;7.134;2023-10-19T13:21:38;71.20;;;58.87;;
20067;SDS011;10194;50.824;7.134;2023-10-19T13:24:08;74.87;;;61.20;;
20067;SDS011;10194;50.824;7.134;2023-10-19T13:26:35;74.30;;;59.90;;
20067;SDS011;10194;50.824;7.134;2023-10-19T13:29:02;73.67;;;60.20;;
20067;SDS011;10194;50.824;7.134;2023-10-19T13:31:28;70.57;;;58.00;;
20067;SDS011;10194;50.824;7.134;2023-10-19T13:33:54;70.03;;;57.90;;
20067;SDS011;10194;50.824;7.134;2023-10-19T13:36:20;73.30;;;59.90;;
20067;SDS011;10194;50.824;7.134;2023-10-19T13:38:46;71.83;;;58.73;;
20067;SDS011;10194;50.824;7.134;2023-10-19T13:41:13;70.07;;;57.33;;
20067;SDS011;10194;50.824;7.134;2023-10-19T13:43:41;72.90;;;58.83;;
20067;SDS011;10194;50.824;7.134;2023-10-19T13:46:07;71.97;;;58.50;;
20067;SDS011;10194;50.824;7.134;2023-10-19T13:48:33;69.53;;;57.03;;
20067;SDS011;10194;50.824;7.134;2023-10-19T13:50:59;71.90;;;58.13;;
20067;SDS011;10194;50.824;7.134;2023-10-19T13:53:44;71.13;;;57.23;;
20067;SDS011;10194;50.824;7.134;2023-10-19T13:56:10;70.40;;;57.20;;
20067;SDS011;10194;50.824;7.134;2023-10-19T13:58:37;69.67;;;56.87;;
20067;SDS011;10194;50.824;7.134;2023-10-19T14:01:07;71.57;;;57.63;;
20067;SDS011;10194;50.824;7.134;2023-10-19T14:03:34;70.20;;;57.23;;
20067;SDS011;10194;50.824;7.134;2023-10-19T14:06:02;71.83;;;57.67;;
20067;SDS011;10194;50.824;7.134;2023-10-19T14:08:28;69.43;;;56.57;;
20067;SDS011;10194;50.824;7.134;2023-10-19T14:11:00;72.50;;;58.50;;
20067;SDS011;10194;50.824;7.134;2023-10-19T14:13:28;74.03;;;58.97;;
20067;SDS011;10194;50.824;7.134;2023-10-19T14:15:54;69.87;;;57.10;;
20067;SDS011;10194;50.824;7.134;2023-10-19T14:18:20;70.73;;;57.50;;
20067;SDS011;10194;50.824;7.134;2023-10-19T14:20:46;74.13;;;59.13;;
20067;SDS011;10194;50.824;7.134;2023-10-19T14:23:14;72.20;;;58.40;;
20067;SDS011;10194;50.824;7.134;2023-10-19T14:25:43;73.80;;;58.83;;
20067;SDS011;10194;50.824;7.134;2023-10-19T14:28:09;70.90;;;56.87;;
20067;SDS011;10194;50.824;7.134;2023-10-19T14:30:35;71.97;;;57.00;;
20067;SDS011;10194;50.824;7.134;2023-10-19T14:33:01;87.63;;;65.63;;
20067;SDS011;10194;50.824;7.134;2023-10-19T14:35:27;73.73;;;58.27;;
20067;SDS011;10194;50.824;7.134;2023-10-19T14:37:54;67.90;;;55.93;;
20067;SDS011;10194;50.824;7.134;2023-10-19T14:40:22;72.53;;;57.87;;
20067;SDS011;10194;50.824;7.134;2023-10-19T14:42:51;79.73;;;61.60;;
20067;SDS011;10194;50.824;7.134;2023-10-19T14:45:24;70.87;;;56.87;;
20067;SDS011;10194;50.824;7.134;2023-10-19T14:47:53;70.60;;;56.70;;
20067;SDS011;10194;50.824;7.134;2023-10-19T14:50:21;70.80;;;57.00;;
20067;SDS011;10194;50.824;7.134;2023-10-19T14:52:49;70.30;;;56.43;;
20067;SDS011;10194;50.824;7.134;2023-10-19T14:55:19;76.80;;;59.47;;
20067;SDS011;10194;50.824;7.134;2023-10-19T14:57:46;70.27;;;57.17;;
20067;SDS011;10194;50.824;7.134;2023-10-19T15:00:14;67.80;;;55.63;;
20067;SDS011;10194;50.824;7.134;2023-10-19T15:02:59;69.10;;;56.83;;